KMKO/MKO METAR and TAF weather

Enter ICAO airport designator
Station Type Date Time Source
KMKO METAR 2020/09/18 21:53 UTC NOAA

KMKO 182153Z AUTO 02006KT 7SM CLR 27/16 A3014 RMK AO2 SLP202 T02670156


Station Type Date Time Source
KMKO Decoded METAR 2020/09/18 21:53 UTC NOAA

MUSKOGEE DAVIS FIELD, OK, United States (KMKO) 35-39N 95-22W 185M
Sep 18, 2020 - 05:53 PM EDT / 2020.09.18 2153 UTC
Wind: from the NNE (020 degrees) at 7 MPH (6 KT):0
Visibility: 7 mile(s):0
Sky conditions: clear
Temperature: 80.1 F (26.7 C)
Dew Point: 60.1 F (15.6 C)
Relative Humidity: 50%
Pressure (altimeter): 30.14 in. Hg (1020 hPa)
ob: KMKO 182153Z AUTO 02006KT 7SM CLR 27/16 A3014 RMK AO2 SLP202 T02670156
cycle: 22

Station Type Date Time Source
KMKO TAF UTC NOAA

Error!

Example: see airport list